sensor_id;sensor_type;location;lat;lon;timestamp;temperature;humidity
4451;DHT22;2238;50.180;9.230;2022-10-16T00:01:08;15.70;99.90
4451;DHT22;2238;50.180;9.230;2022-10-16T00:04:09;15.80;99.90
4451;DHT22;2238;50.180;9.230;2022-10-16T00:07:10;16.80;99.90
4451;DHT22;2238;50.180;9.230;2022-10-16T00:10:10;15.60;99.90
4451;DHT22;2238;50.180;9.230;2022-10-16T00:13:11;16.10;99.90
4451;DHT22;2238;50.180;9.230;2022-10-16T00:16:12;17.70;99.90
4451;DHT22;2238;50.180;9.230;2022-10-16T00:19:13;15.90;99.90
4451;DHT22;2238;50.180;9.230;2022-10-16T00:22:13;16.30;99.90
4451;DHT22;2238;50.180;9.230;2022-10-16T00:25:14;16.80;99.90
4451;DHT22;2238;50.180;9.230;2022-10-16T00:28:15;15.80;99.90
4451;DHT22;2238;50.180;9.230;2022-10-16T00:31:17;15.70;99.90
4451;DHT22;2238;50.180;9.230;2022-10-16T00:34:18;15.80;99.90
4451;DHT22;2238;50.180;9.230;2022-10-16T00:37:18;15.70;99.90
4451;DHT22;2238;50.180;9.230;2022-10-16T00:40:19;15.70;99.90
4451;DHT22;2238;50.180;9.230;2022-10-16T00:46:37;16.30;99.90
4451;DHT22;2238;50.180;9.230;2022-10-16T00:49:38;15.70;99.90
4451;DHT22;2238;50.180;9.230;2022-10-16T00:52:41;15.70;99.90
4451;DHT22;2238;50.180;9.230;2022-10-16T00:55:43;15.70;99.90
4451;DHT22;2238;50.180;9.230;2022-10-16T00:58:44;15.70;99.90
4451;DHT22;2238;50.180;9.230;2022-10-16T01:01:45;17.20;99.90
4451;DHT22;2238;50.180;9.230;2022-10-16T01:04:50;15.70;99.90
4451;DHT22;2238;50.180;9.230;2022-10-16T01:11:20;15.80;99.90
4451;DHT22;2238;50.180;9.230;2022-10-16T01:14:52;15.70;99.90
4451;DHT22;2238;50.180;9.230;2022-10-16T01:21:29;15.70;99.90
4451;DHT22;2238;50.180;9.230;2022-10-16T01:24:40;15.70;99.90
4451;DHT22;2238;50.180;9.230;2022-10-16T01:27:42;15.70;99.90
4451;DHT22;2238;50.180;9.230;2022-10-16T01:30:46;15.70;99.90
4451;DHT22;2238;50.180;9.230;2022-10-16T01:33:58;16.60;99.90
4451;DHT22;2238;50.180;9.230;2022-10-16T01:37:05;15.60;99.90
4451;DHT22;2238;50.180;9.230;2022-10-16T01:40:11;18.10;99.90
4451;DHT22;2238;50.180;9.230;2022-10-16T01:43:17;17.10;99.90
4451;DHT22;2238;50.180;9.230;2022-10-16T01:46:20;15.70;99.90
4451;DHT22;2238;50.180;9.230;2022-10-16T01:49:23;15.80;99.90
4451;DHT22;2238;50.180;9.230;2022-10-16T01:52:27;16.50;99.90
4451;DHT22;2238;50.180;9.230;2022-10-16T01:55:32;15.80;99.90
4451;DHT22;2238;50.180;9.230;2022-10-16T01:58:37;15.70;99.90
4451;DHT22;2238;50.180;9.230;2022-10-16T02:01:41;15.70;99.90
4451;DHT22;2238;50.180;9.230;2022-10-16T02:05:39;16.70;99.90
4451;DHT22;2238;50.180;9.230;2022-10-16T02:08:38;16.80;99.90
4451;DHT22;2238;50.180;9.230;2022-10-16T02:11:40;15.50;99.90
4451;DHT22;2238;50.180;9.230;2022-10-16T02:14:41;15.50;99.90
4451;DHT22;2238;50.180;9.230;2022-10-16T02:17:42;15.40;99.90
4451;DHT22;2238;50.180;9.230;2022-10-16T02:21:19;15.40;99.90
4451;DHT22;2238;50.180;9.230;2022-10-16T02:24:30;15.30;99.90
4451;DHT22;2238;50.180;9.230;2022-10-16T02:27:46;16.10;99.90
4451;DHT22;2238;50.180;9.230;2022-10-16T02:30:58;15.30;99.90
4451;DHT22;2238;50.180;9.230;2022-10-16T02:34:02;15.30;99.90
4451;DHT22;2238;50.180;9.230;2022-10-16T02:37:05;15.50;99.90
4451;DHT22;2238;50.180;9.230;2022-10-16T02:40:07;16.50;99.90
4451;DHT22;2238;50.180;9.230;2022-10-16T02:43:08;15.20;99.90
4451;DHT22;2238;50.180;9.230;2022-10-16T02:46:09;16.30;99.90
4451;DHT22;2238;50.180;9.230;2022-10-16T02:49:10;16.40;99.90
4451;DHT22;2238;50.180;9.230;2022-10-16T02:52:11;17.30;99.90
4451;DHT22;2238;50.180;9.230;2022-10-16T02:55:11;15.20;99.90
4451;DHT22;2238;50.180;9.230;2022-10-16T02:58:12;16.30;99.90
4451;DHT22;2238;50.180;9.230;2022-10-16T03:01:12;15.10;99.90
4451;DHT22;2238;50.180;9.230;2022-10-16T03:04:14;15.10;99.90
4451;DHT22;2238;50.180;9.230;2022-10-16T03:07:15;15.00;99.90
4451;DHT22;2238;50.180;9.230;2022-10-16T03:10:16;15.00;99.90
4451;DHT22;2238;50.180;9.230;2022-10-16T03:13:16;16.80;99.90
4451;DHT22;2238;50.180;9.230;2022-10-16T03:16:17;15.10;99.90
4451;DHT22;2238;50.180;9.230;2022-10-16T03:19:18;15.20;99.90
4451;DHT22;2238;50.180;9.230;2022-10-16T03:22:19;15.10;99.90
4451;DHT22;2238;50.180;9.230;2022-10-16T03:25:19;15.00;99.90
4451;DHT22;2238;50.180;9.230;2022-10-16T03:28:20;15.20;99.90
4451;DHT22;2238;50.180;9.230;2022-10-16T03:31:21;15.10;99.90
4451;DHT22;2238;50.180;9.230;2022-10-16T03:34:22;15.10;99.90
4451;DHT22;2238;50.180;9.230;2022-10-16T03:37:23;16.80;99.90
4451;DHT22;2238;50.180;9.230;2022-10-16T03:40:23;15.20;99.90
4451;DHT22;2238;50.180;9.230;2022-10-16T03:43:24;15.40;99.90
4451;DHT22;2238;50.180;9.230;2022-10-16T03:46:24;15.30;99.90
4451;DHT22;2238;50.180;9.230;2022-10-16T03:49:25;16.00;99.90
4451;DHT22;2238;50.180;9.230;2022-10-16T03:52:26;16.50;99.90
4451;DHT22;2238;50.180;9.230;2022-10-16T03:55:26;16.40;99.90
4451;DHT22;2238;50.180;9.230;2022-10-16T03:58:27;15.40;99.90
4451;DHT22;2238;50.180;9.230;2022-10-16T04:01:27;16.40;99.90
4451;DHT22;2238;50.180;9.230;2022-10-16T04:04:28;15.20;99.90
4451;DHT22;2238;50.180;9.230;2022-10-16T04:07:28;15.30;99.90
4451;DHT22;2238;50.180;9.230;2022-10-16T04:10:29;16.90;99.90
4451;DHT22;2238;50.180;9.230;2022-10-16T04:13:30;16.10;99.90
4451;DHT22;2238;50.180;9.230;2022-10-16T04:16:30;15.20;99.90
4451;DHT22;2238;50.180;9.230;2022-10-16T04:19:31;16.10;99.90
4451;DHT22;2238;50.180;9.230;2022-10-16T04:22:31;15.50;99.90
4451;DHT22;2238;50.180;9.230;2022-10-16T04:25:32;15.40;99.90
4451;DHT22;2238;50.180;9.230;2022-10-16T04:28:32;16.10;99.90
4451;DHT22;2238;50.180;9.230;2022-10-16T04:31:33;15.30;99.90
4451;DHT22;2238;50.180;9.230;2022-10-16T04:34:34;15.20;99.90
4451;DHT22;2238;50.180;9.230;2022-10-16T04:37:35;15.00;99.90
4451;DHT22;2238;50.180;9.230;2022-10-16T04:40:35;15.40;99.90
4451;DHT22;2238;50.180;9.230;2022-10-16T04:43:38;15.30;99.90
4451;DHT22;2238;50.180;9.230;2022-10-16T04:46:39;15.90;99.90
4451;DHT22;2238;50.180;9.230;2022-10-16T04:49:40;15.40;99.90
4451;DHT22;2238;50.180;9.230;2022-10-16T04:52:40;15.70;99.90
4451;DHT22;2238;50.180;9.230;2022-10-16T04:55:42;15.50;99.90
4451;DHT22;2238;50.180;9.230;2022-10-16T04:58:43;15.40;99.90
4451;DHT22;2238;50.180;9.230;2022-10-16T05:01:44;15.30;99.90
4451;DHT22;2238;50.180;9.230;2022-10-16T05:04:45;15.20;99.90
4451;DHT22;2238;50.180;9.230;2022-10-16T05:07:46;15.90;99.90
4451;DHT22;2238;50.180;9.230;2022-10-16T05:10:47;15.20;99.90
4451;DHT22;2238;50.180;9.230;2022-10-16T05:13:48;18.20;99.90
4451;DHT22;2238;50.180;9.230;2022-10-16T05:16:48;15.30;99.90
4451;DHT22;2238;50.180;9.230;2022-10-16T05:19:49;16.40;99.90
4451;DHT22;2238;50.180;9.230;2022-10-16T05:22:49;15.30;99.90
4451;DHT22;2238;50.180;9.230;2022-10-16T05:25:57;15.50;99.90
4451;DHT22;2238;50.180;9.230;2022-10-16T05:28:58;17.30;99.90
4451;DHT22;2238;50.180;9.230;2022-10-16T05:31:59;15.50;99.90
4451;DHT22;2238;50.180;9.230;2022-10-16T05:34:59;15.40;99.90
4451;DHT22;2238;50.180;9.230;2022-10-16T05:38:00;15.40;99.90
4451;DHT22;2238;50.180;9.230;2022-10-16T05:41:01;15.30;99.90
4451;DHT22;2238;50.180;9.230;2022-10-16T05:44:04;15.20;99.90
4451;DHT22;2238;50.180;9.230;2022-10-16T05:47:06;15.20;99.90
4451;DHT22;2238;50.180;9.230;2022-10-16T05:50:07;15.10;99.90
4451;DHT22;2238;50.180;9.230;2022-10-16T05:53:07;15.10;99.90
4451;DHT22;2238;50.180;9.230;2022-10-16T05:56:10;15.20;99.90
4451;DHT22;2238;50.180;9.230;2022-10-16T05:59:11;15.30;99.90
4451;DHT22;2238;50.180;9.230;2022-10-16T06:02:13;15.10;99.90
4451;DHT22;2238;50.180;9.230;2022-10-16T06:05:14;15.10;99.90
4451;DHT22;2238;50.180;9.230;2022-10-16T06:08:14;15.10;99.90
4451;DHT22;2238;50.180;9.230;2022-10-16T06:11:33;15.10;99.90
4451;DHT22;2238;50.180;9.230;2022-10-16T06:14:34;15.20;99.90
4451;DHT22;2238;50.180;9.230;2022-10-16T06:17:34;15.10;99.90
4451;DHT22;2238;50.180;9.230;2022-10-16T06:20:36;15.20;99.90
4451;DHT22;2238;50.180;9.230;2022-10-16T06:26:37;15.40;99.90
4451;DHT22;2238;50.180;9.230;2022-10-16T06:44:44;15.70;99.90
4451;DHT22;2238;50.180;9.230;2022-10-16T06:47:44;15.70;99.90
4451;DHT22;2238;50.180;9.230;2022-10-16T06:51:11;15.70;99.90
4451;DHT22;2238;50.180;9.230;2022-10-16T06:54:12;15.70;99.90
4451;DHT22;2238;50.180;9.230;2022-10-16T06:57:12;15.80;99.90
4451;DHT22;2238;50.180;9.230;2022-10-16T07:03:14;16.00;99.90
4451;DHT22;2238;50.180;9.230;2022-10-16T07:06:17;16.10;99.90
4451;DHT22;2238;50.180;9.230;2022-10-16T07:21:28;16.10;99.90
4451;DHT22;2238;50.180;9.230;2022-10-16T07:30:35;16.10;99.90
4451;DHT22;2238;50.180;9.230;2022-10-16T07:33:37;16.20;99.90
4451;DHT22;2238;50.180;9.230;2022-10-16T07:36:39;16.20;99.90
4451;DHT22;2238;50.180;9.230;2022-10-16T07:39:39;16.40;99.90
4451;DHT22;2238;50.180;9.230;2022-10-16T07:45:48;16.60;99.90
4451;DHT22;2238;50.180;9.230;2022-10-16T07:48:50;16.70;99.90
4451;DHT22;2238;50.180;9.230;2022-10-16T07:57:54;16.80;99.90
4451;DHT22;2238;50.180;9.230;2022-10-16T08:00:56;16.80;99.90
4451;DHT22;2238;50.180;9.230;2022-10-16T08:03:57;16.80;99.90
4451;DHT22;2238;50.180;9.230;2022-10-16T08:06:58;12.80;99.90
4451;DHT22;2238;50.180;9.230;2022-10-16T08:13:00;16.80;99.90
4451;DHT22;2238;50.180;9.230;2022-10-16T08:16:01;16.80;99.90
4451;DHT22;2238;50.180;9.230;2022-10-16T08:19:03;16.80;99.90
4451;DHT22;2238;50.180;9.230;2022-10-16T08:22:04;16.70;99.90
4451;DHT22;2238;50.180;9.230;2022-10-16T08:25:05;16.80;99.90
4451;DHT22;2238;50.180;9.230;2022-10-16T08:28:08;16.70;99.90
4451;DHT22;2238;50.180;9.230;2022-10-16T08:31:14;16.80;99.90
4451;DHT22;2238;50.180;9.230;2022-10-16T08:34:15;16.80;99.90
4451;DHT22;2238;50.180;9.230;2022-10-16T08:37:15;16.80;99.90
4451;DHT22;2238;50.180;9.230;2022-10-16T08:40:19;16.80;99.90
4451;DHT22;2238;50.180;9.230;2022-10-16T08:44:34;16.80;99.90
4451;DHT22;2238;50.180;9.230;2022-10-16T08:47:24;17.00;99.90
4451;DHT22;2238;50.180;9.230;2022-10-16T08:50:27;17.00;99.90
4451;DHT22;2238;50.180;9.230;2022-10-16T08:53:35;17.00;99.90
4451;DHT22;2238;50.180;9.230;2022-10-16T08:56:36;16.90;99.90
4451;DHT22;2238;50.180;9.230;2022-10-16T09:02:44;16.80;99.90
4451;DHT22;2238;50.180;9.230;2022-10-16T09:05:57;16.70;99.90
4451;DHT22;2238;50.180;9.230;2022-10-16T09:15:35;16.70;99.90
4451;DHT22;2238;50.180;9.230;2022-10-16T09:18:56;16.90;99.90
4451;DHT22;2238;50.180;9.230;2022-10-16T09:22:04;16.80;99.90
4451;DHT22;2238;50.180;9.230;2022-10-16T09:25:20;16.80;99.90
4451;DHT22;2238;50.180;9.230;2022-10-16T09:28:21;16.90;99.90
4451;DHT22;2238;50.180;9.230;2022-10-16T09:31:22;17.00;99.90
4451;DHT22;2238;50.180;9.230;2022-10-16T09:34:45;17.00;99.90
4451;DHT22;2238;50.180;9.230;2022-10-16T09:37:50;16.90;99.90
4451;DHT22;2238;50.180;9.230;2022-10-16T09:40:52;16.90;99.90
4451;DHT22;2238;50.180;9.230;2022-10-16T09:43:59;17.00;99.90
4451;DHT22;2238;50.180;9.230;2022-10-16T09:47:14;17.10;99.90
4451;DHT22;2238;50.180;9.230;2022-10-16T09:50:28;17.10;99.90
4451;DHT22;2238;50.180;9.230;2022-10-16T09:53:41;17.20;99.90
4451;DHT22;2238;50.180;9.230;2022-10-16T09:59:48;17.20;99.90
4451;DHT22;2238;50.180;9.230;2022-10-16T10:02:51;17.30;99.90
4451;DHT22;2238;50.180;9.230;2022-10-16T10:05:52;17.30;99.90
4451;DHT22;2238;50.180;9.230;2022-10-16T10:12:02;17.40;99.90
4451;DHT22;2238;50.180;9.230;2022-10-16T10:15:10;17.40;99.90
4451;DHT22;2238;50.180;9.230;2022-10-16T10:18:19;17.50;99.90
4451;DHT22;2238;50.180;9.230;2022-10-16T10:21:22;17.70;99.90
4451;DHT22;2238;50.180;9.230;2022-10-16T10:24:22;13.80;99.90
4451;DHT22;2238;50.180;9.230;2022-10-16T10:53:21;17.30;99.90
4451;DHT22;2238;50.180;9.230;2022-10-16T11:00:03;17.40;99.90
4451;DHT22;2238;50.180;9.230;2022-10-16T11:06:57;18.10;99.90
4451;DHT22;2238;50.180;9.230;2022-10-16T11:10:04;18.20;99.90
4451;DHT22;2238;50.180;9.230;2022-10-16T11:16:34;18.30;99.90
4451;DHT22;2238;50.180;9.230;2022-10-16T11:22:53;18.60;99.90
4451;DHT22;2238;50.180;9.230;2022-10-16T11:25:59;18.70;99.90
4451;DHT22;2238;50.180;9.230;2022-10-16T11:29:02;20.80;99.90
4451;DHT22;2238;50.180;9.230;2022-10-16T11:32:16;18.60;99.90
4451;DHT22;2238;50.180;9.230;2022-10-16T11:35:31;18.50;99.90
4451;DHT22;2238;50.180;9.230;2022-10-16T11:41:49;18.50;99.90
4451;DHT22;2238;50.180;9.230;2022-10-16T11:48:12;18.20;99.90
4451;DHT22;2238;50.180;9.230;2022-10-16T11:54:55;18.20;99.90
4451;DHT22;2238;50.180;9.230;2022-10-16T12:01:38;18.30;99.90
4451;DHT22;2238;50.180;9.230;2022-10-16T12:04:49;18.60;99.90
4451;DHT22;2238;50.180;9.230;2022-10-16T12:08:12;18.80;99.90
4451;DHT22;2238;50.180;9.230;2022-10-16T12:14:34;18.90;99.90
4451;DHT22;2238;50.180;9.230;2022-10-16T12:17:38;19.00;99.90
4451;DHT22;2238;50.180;9.230;2022-10-16T12:20:39;19.10;99.90
4451;DHT22;2238;50.180;9.230;2022-10-16T12:23:51;19.00;99.90
4451;DHT22;2238;50.180;9.230;2022-10-16T12:26:52;19.00;99.90
4451;DHT22;2238;50.180;9.230;2022-10-16T12:30:01;19.10;99.90
4451;DHT22;2238;50.180;9.230;2022-10-16T12:33:05;19.40;99.90
4451;DHT22;2238;50.180;9.230;2022-10-16T12:36:13;19.30;99.90
4451;DHT22;2238;50.180;9.230;2022-10-16T12:39:23;22.50;99.90
4451;DHT22;2238;50.180;9.230;2022-10-16T12:45:32;19.20;99.90
4451;DHT22;2238;50.180;9.230;2022-10-16T12:48:34;19.30;99.90
4451;DHT22;2238;50.180;9.230;2022-10-16T12:51:37;19.30;99.90
4451;DHT22;2238;50.180;9.230;2022-10-16T12:54:38;19.20;99.90
4451;DHT22;2238;50.180;9.230;2022-10-16T13:08:12;19.00;99.90
4451;DHT22;2238;50.180;9.230;2022-10-16T13:17:55;19.00;99.90
4451;DHT22;2238;50.180;9.230;2022-10-16T13:30:56;19.00;99.90
4451;DHT22;2238;50.180;9.230;2022-10-16T13:33:58;19.00;99.90
4451;DHT22;2238;50.180;9.230;2022-10-16T13:37:00;19.10;99.90
4451;DHT22;2238;50.180;9.230;2022-10-16T13:40:19;19.10;99.90
4451;DHT22;2238;50.180;9.230;2022-10-16T13:43:36;19.10;99.90
4451;DHT22;2238;50.180;9.230;2022-10-16T13:46:39;19.00;99.90
4451;DHT22;2238;50.180;9.230;2022-10-16T13:49:39;18.90;99.90
4451;DHT22;2238;50.180;9.230;2022-10-16T13:58:43;18.90;99.90
4451;DHT22;2238;50.180;9.230;2022-10-16T14:01:45;19.00;99.90
4451;DHT22;2238;50.180;9.230;2022-10-16T14:04:46;19.00;99.90
4451;DHT22;2238;50.180;9.230;2022-10-16T14:07:49;19.10;99.90
4451;DHT22;2238;50.180;9.230;2022-10-16T14:10:54;19.10;99.90
4451;DHT22;2238;50.180;9.230;2022-10-16T14:13:55;18.90;99.90
4451;DHT22;2238;50.180;9.230;2022-10-16T14:16:56;18.80;99.90
4451;DHT22;2238;50.180;9.230;2022-10-16T14:19:59;18.80;99.90
4451;DHT22;2238;50.180;9.230;2022-10-16T14:23:19;21.10;99.90
4451;DHT22;2238;50.180;9.230;2022-10-16T14:26:23;18.90;99.90
4451;DHT22;2238;50.180;9.230;2022-10-16T14:29:25;22.50;99.90
4451;DHT22;2238;50.180;9.230;2022-10-16T14:32:27;18.80;99.90
4451;DHT22;2238;50.180;9.230;2022-10-16T14:35:31;18.80;99.90
4451;DHT22;2238;50.180;9.230;2022-10-16T14:38:33;18.60;99.90
4451;DHT22;2238;50.180;9.230;2022-10-16T14:41:43;18.70;99.90
4451;DHT22;2238;50.180;9.230;2022-10-16T14:44:45;18.70;99.90
4451;DHT22;2238;50.180;9.230;2022-10-16T14:47:50;18.60;99.90
4451;DHT22;2238;50.180;9.230;2022-10-16T14:50:52;18.60;99.90
4451;DHT22;2238;50.180;9.230;2022-10-16T14:53:53;18.60;99.90
4451;DHT22;2238;50.180;9.230;2022-10-16T14:56:58;18.40;99.90
4451;DHT22;2238;50.180;9.230;2022-10-16T14:59:59;18.40;99.90
4451;DHT22;2238;50.180;9.230;2022-10-16T15:03:00;18.70;99.90
4451;DHT22;2238;50.180;9.230;2022-10-16T15:06:00;18.70;99.90
4451;DHT22;2238;50.180;9.230;2022-10-16T15:09:01;18.80;99.90
4451;DHT22;2238;50.180;9.230;2022-10-16T15:12:01;18.60;99.90
4451;DHT22;2238;50.180;9.230;2022-10-16T15:15:25;18.60;99.90
4451;DHT22;2238;50.180;9.230;2022-10-16T15:18:28;18.60;99.90
4451;DHT22;2238;50.180;9.230;2022-10-16T15:21:31;18.50;99.90
4451;DHT22;2238;50.180;9.230;2022-10-16T15:24:31;18.30;99.90
4451;DHT22;2238;50.180;9.230;2022-10-16T15:27:32;18.20;99.90
4451;DHT22;2238;50.180;9.230;2022-10-16T15:30:42;18.10;99.90
4451;DHT22;2238;50.180;9.230;2022-10-16T15:33:45;18.20;99.90
4451;DHT22;2238;50.180;9.230;2022-10-16T15:36:53;18.20;99.90
4451;DHT22;2238;50.180;9.230;2022-10-16T15:39:55;18.10;99.90
4451;DHT22;2238;50.180;9.230;2022-10-16T15:42:56;18.00;99.90
4451;DHT22;2238;50.180;9.230;2022-10-16T15:46:02;18.20;99.90
4451;DHT22;2238;50.180;9.230;2022-10-16T15:49:04;21.30;99.90
4451;DHT22;2238;50.180;9.230;2022-10-16T15:52:05;18.00;99.90
4451;DHT22;2238;50.180;9.230;2022-10-16T15:55:07;18.10;99.90
4451;DHT22;2238;50.180;9.230;2022-10-16T16:01:11;18.00;99.90
4451;DHT22;2238;50.180;9.230;2022-10-16T16:04:12;17.90;99.90
4451;DHT22;2238;50.180;9.230;2022-10-16T16:07:13;17.90;99.90
4451;DHT22;2238;50.180;9.230;2022-10-16T16:10:17;17.90;99.90
4451;DHT22;2238;50.180;9.230;2022-10-16T16:13:18;17.90;99.90
4451;DHT22;2238;50.180;9.230;2022-10-16T16:16:18;17.90;99.90
4451;DHT22;2238;50.180;9.230;2022-10-16T16:19:20;18.00;99.90
4451;DHT22;2238;50.180;9.230;2022-10-16T16:22:21;17.90;99.90
4451;DHT22;2238;50.180;9.230;2022-10-16T16:25:22;17.90;99.90
4451;DHT22;2238;50.180;9.230;2022-10-16T16:28:22;17.80;99.90
4451;DHT22;2238;50.180;9.230;2022-10-16T16:31:27;17.70;99.90
4451;DHT22;2238;50.180;9.230;2022-10-16T16:34:28;17.50;99.90
4451;DHT22;2238;50.180;9.230;2022-10-16T16:37:29;17.50;99.90
4451;DHT22;2238;50.180;9.230;2022-10-16T16:40:30;17.40;99.90
4451;DHT22;2238;50.180;9.230;2022-10-16T16:43:30;17.40;99.90
4451;DHT22;2238;50.180;9.230;2022-10-16T16:46:33;17.60;99.90
4451;DHT22;2238;50.180;9.230;2022-10-16T16:55:36;17.50;99.90
4451;DHT22;2238;50.180;9.230;2022-10-16T16:58:36;17.40;99.90
4451;DHT22;2238;50.180;9.230;2022-10-16T17:01:37;17.40;99.90
4451;DHT22;2238;50.180;9.230;2022-10-16T17:04:37;17.30;99.90
4451;DHT22;2238;50.180;9.230;2022-10-16T17:07:38;17.30;99.90
4451;DHT22;2238;50.180;9.230;2022-10-16T17:10:44;17.30;99.90
4451;DHT22;2238;50.180;9.230;2022-10-16T17:13:46;17.20;99.90
4451;DHT22;2238;50.180;9.230;2022-10-16T17:16:47;17.20;99.90
4451;DHT22;2238;50.180;9.230;2022-10-16T17:19:50;17.10;99.90
4451;DHT22;2238;50.180;9.230;2022-10-16T17:25:51;17.10;99.90
4451;DHT22;2238;50.180;9.230;2022-10-16T17:28:54;17.20;99.90
4451;DHT22;2238;50.180;9.230;2022-10-16T17:31:56;17.20;99.90
4451;DHT22;2238;50.180;9.230;2022-10-16T17:41:11;17.00;99.90
4451;DHT22;2238;50.180;9.230;2022-10-16T17:44:12;17.00;99.90
4451;DHT22;2238;50.180;9.230;2022-10-16T17:47:19;17.00;99.90
4451;DHT22;2238;50.180;9.230;2022-10-16T17:50:19;17.00;99.90
4451;DHT22;2238;50.180;9.230;2022-10-16T17:53:20;17.00;99.90
4451;DHT22;2238;50.180;9.230;2022-10-16T17:56:21;17.00;99.90
4451;DHT22;2238;50.180;9.230;2022-10-16T17:59:22;17.00;99.90
4451;DHT22;2238;50.180;9.230;2022-10-16T18:02:23;17.00;99.90
4451;DHT22;2238;50.180;9.230;2022-10-16T18:05:24;16.90;99.90
4451;DHT22;2238;50.180;9.230;2022-10-16T18:08:24;16.90;99.90
4451;DHT22;2238;50.180;9.230;2022-10-16T18:11:25;16.90;99.90
4451;DHT22;2238;50.180;9.230;2022-10-16T18:14:28;16.90;99.90
4451;DHT22;2238;50.180;9.230;2022-10-16T18:17:29;16.90;99.90
4451;DHT22;2238;50.180;9.230;2022-10-16T18:20:32;16.90;99.90
4451;DHT22;2238;50.180;9.230;2022-10-16T18:23:36;16.80;99.90
4451;DHT22;2238;50.180;9.230;2022-10-16T18:26:38;16.80;99.90
4451;DHT22;2238;50.180;9.230;2022-10-16T18:29:38;16.90;99.90
4451;DHT22;2238;50.180;9.230;2022-10-16T18:35:40;16.80;99.90
4451;DHT22;2238;50.180;9.230;2022-10-16T18:38:41;16.90;99.90
4451;DHT22;2238;50.180;9.230;2022-10-16T18:41:42;16.90;99.90
4451;DHT22;2238;50.180;9.230;2022-10-16T18:44:46;16.80;99.90
4451;DHT22;2238;50.180;9.230;2022-10-16T18:47:47;16.80;99.90
4451;DHT22;2238;50.180;9.230;2022-10-16T18:53:55;16.70;99.90
4451;DHT22;2238;50.180;9.230;2022-10-16T18:56:56;16.60;99.90
4451;DHT22;2238;50.180;9.230;2022-10-16T19:06:03;16.50;99.90
4451;DHT22;2238;50.180;9.230;2022-10-16T19:09:05;16.60;99.90
4451;DHT22;2238;50.180;9.230;2022-10-16T19:12:06;16.60;99.90
4451;DHT22;2238;50.180;9.230;2022-10-16T19:15:08;16.60;99.90
4451;DHT22;2238;50.180;9.230;2022-10-16T19:21:12;16.60;99.90
4451;DHT22;2238;50.180;9.230;2022-10-16T19:24:14;16.60;99.90
4451;DHT22;2238;50.180;9.230;2022-10-16T19:27:14;16.50;99.90
4451;DHT22;2238;50.180;9.230;2022-10-16T19:30:15;16.50;99.90
4451;DHT22;2238;50.180;9.230;2022-10-16T19:36:24;16.40;99.90
4451;DHT22;2238;50.180;9.230;2022-10-16T19:39:25;16.50;99.90
4451;DHT22;2238;50.180;9.230;2022-10-16T19:42:25;16.50;99.90
4451;DHT22;2238;50.180;9.230;2022-10-16T19:51:29;16.50;99.90
4451;DHT22;2238;50.180;9.230;2022-10-16T19:54:31;16.50;99.90
4451;DHT22;2238;50.180;9.230;2022-10-16T19:57:34;16.50;99.90
4451;DHT22;2238;50.180;9.230;2022-10-16T20:00:40;16.50;99.90
4451;DHT22;2238;50.180;9.230;2022-10-16T20:03:46;16.50;99.90
4451;DHT22;2238;50.180;9.230;2022-10-16T20:06:46;16.50;99.90
4451;DHT22;2238;50.180;9.230;2022-10-16T20:09:47;16.50;99.90
4451;DHT22;2238;50.180;9.230;2022-10-16T20:18:51;16.50;99.90
4451;DHT22;2238;50.180;9.230;2022-10-16T20:21:52;16.50;99.90
4451;DHT22;2238;50.180;9.230;2022-10-16T20:24:52;16.50;99.90
4451;DHT22;2238;50.180;9.230;2022-10-16T20:30:54;16.50;99.90
4451;DHT22;2238;50.180;9.230;2022-10-16T20:33:55;16.50;99.90
4451;DHT22;2238;50.180;9.230;2022-10-16T20:46:05;16.60;99.90
4451;DHT22;2238;50.180;9.230;2022-10-16T20:55:10;16.70;99.90
4451;DHT22;2238;50.180;9.230;2022-10-16T21:01:14;16.80;99.90
4451;DHT22;2238;50.180;9.230;2022-10-16T21:10:17;16.80;99.90
4451;DHT22;2238;50.180;9.230;2022-10-16T21:13:19;16.70;99.90
4451;DHT22;2238;50.180;9.230;2022-10-16T21:16:20;16.80;99.90
4451;DHT22;2238;50.180;9.230;2022-10-16T21:28:23;16.90;99.90
4451;DHT22;2238;50.180;9.230;2022-10-16T21:31:24;16.70;99.90
4451;DHT22;2238;50.180;9.230;2022-10-16T21:34:25;16.80;99.90
4451;DHT22;2238;50.180;9.230;2022-10-16T21:37:26;16.50;99.90
4451;DHT22;2238;50.180;9.230;2022-10-16T21:40:28;16.50;99.90
4451;DHT22;2238;50.180;9.230;2022-10-16T21:43:29;16.20;99.90
4451;DHT22;2238;50.180;9.230;2022-10-16T21:46:31;16.20;99.90
4451;DHT22;2238;50.180;9.230;2022-10-16T21:52:33;16.50;99.90
4451;DHT22;2238;50.180;9.230;2022-10-16T21:55:35;16.60;99.90
4451;DHT22;2238;50.180;9.230;2022-10-16T22:01:36;16.70;99.90
4451;DHT22;2238;50.180;9.230;2022-10-16T22:04:37;16.70;99.90
4451;DHT22;2238;50.180;9.230;2022-10-16T22:13:40;17.10;99.90
4451;DHT22;2238;50.180;9.230;2022-10-16T22:16:42;17.20;99.90
4451;DHT22;2238;50.180;9.230;2022-10-16T22:31:50;17.50;99.90
4451;DHT22;2238;50.180;9.230;2022-10-16T22:40:54;17.60;99.90
4451;DHT22;2238;50.180;9.230;2022-10-16T22:43:55;17.70;99.90
4451;DHT22;2238;50.180;9.230;2022-10-16T22:46:56;17.60;99.90
4451;DHT22;2238;50.180;9.230;2022-10-16T22:55:59;17.90;99.90
4451;DHT22;2238;50.180;9.230;2022-10-16T23:05:02;18.10;99.90
4451;DHT22;2238;50.180;9.230;2022-10-16T23:08:02;18.20;99.90
4451;DHT22;2238;50.180;9.230;2022-10-16T23:11:05;18.40;99.90
4451;DHT22;2238;50.180;9.230;2022-10-16T23:17:07;18.30;99.90
4451;DHT22;2238;50.180;9.230;2022-10-16T23:20:08;18.40;99.90
4451;DHT22;2238;50.180;9.230;2022-10-16T23:23:09;18.30;99.90
4451;DHT22;2238;50.180;9.230;2022-10-16T23:26:12;18.20;99.90
4451;DHT22;2238;50.180;9.230;2022-10-16T23:32:14;18.30;99.90
4451;DHT22;2238;50.180;9.230;2022-10-16T23:35:14;18.20;99.90
4451;DHT22;2238;50.180;9.230;2022-10-16T23:38:15;18.30;99.90
4451;DHT22;2238;50.180;9.230;2022-10-16T23:41:17;18.40;99.90
4451;DHT22;2238;50.180;9.230;2022-10-16T23:44:18;18.40;99.90
4451;DHT22;2238;50.180;9.230;2022-10-16T23:50:20;18.50;99.90
4451;DHT22;2238;50.180;9.230;2022-10-16T23:56:22;18.60;99.90
4451;DHT22;2238;50.180;9.230;2022-10-16T23:59:22;18.40;99.90
